Meteo – Situazione

Stazione Meteo G.A.P.
Ultimo aggiornamento 2021-05-11 13:30:19 Z

Vento da (gradi)
Velocità del vento (Km/h)
Temperatura (C°)
Pressione Barometrica (hPa)
Umidità (%)
Visibilità (mt)
Copertura Nuvolosa (%)
Pioggia nelle ultime 3 ore (mm)
Neve nelle ultime 3 ore (cm)

METAR Aeroporti Vicini

Pratica di Mare

LIRE 111155Z 22009KT CAVOK 21/19 Q1014 RMK BKN BKN080 VIS MIN 9999 WIND THR13 23010KT WIND THR31 /////KT BLU

Roma Fiumicino

LIRF 111250Z 22015KT 9999 SCT013 BKN030 20/16 Q1014 TEMPO RA

Roma Ciampino

LIRA 111250Z 23013KT 9999 FEW020 SCT025 20/15 Q1014

Latina

LIRL 111255Z 24012KT 9999 SCT020 BKN060 21/18 Q1014

Guidonia

LIRG 111255Z 22013KT 9999 FEW035 22/12 Q1014

Roma Urbe

LIRU 111250Z 22012KT 190V250 9999 FEW025 SCT040 21/15 Q1013

Comments are closed.